createdAt,value
2017-11-17T00:00:41.736Z,82.48
2017-11-17T00:01:51.812Z,82.43
2017-11-17T00:03:01.899Z,82.48
2017-11-17T00:04:11.705Z,82.67
2017-11-17T00:05:21.580Z,82.43
2017-11-17T00:06:31.648Z,82.57
2017-11-17T00:07:41.740Z,82.53
2017-11-17T00:08:51.837Z,82.43
2017-11-17T00:10:01.896Z,82.43
2017-11-17T00:11:11.755Z,82.53
2017-11-17T00:12:21.843Z,82.62
2017-11-17T00:13:31.944Z,82.53
2017-11-17T00:14:41.776Z,82.53
2017-11-17T00:15:51.592Z,82.53
2017-11-17T00:17:01.685Z,82.81
2017-11-17T00:18:11.762Z,82.71
2017-11-17T00:19:21.829Z,82.81
2017-11-17T00:20:31.649Z,82.71
2017-11-17T00:21:41.740Z,82.53
2017-11-17T00:22:51.820Z,82.53
2017-11-17T00:24:01.626Z,82.71
2017-11-17T00:25:10.907Z,82.81
2017-11-17T00:26:20.991Z,82.34
2017-11-17T00:27:31.014Z,82.62
2017-11-17T00:28:42.839Z,82.53
2017-11-17T00:29:52.914Z,82.53
2017-11-17T00:31:02.981Z,82.71
2017-11-17T00:32:12.781Z,82.53
2017-11-17T00:33:22.595Z,82.53
2017-11-17T00:34:32.665Z,82.62
2017-11-17T00:35:42.480Z,82.34
2017-11-17T00:36:51.769Z,82.71
2017-11-17T00:38:01.821Z,82.62
2017-11-17T00:39:11.609Z,82.81
2017-11-17T00:40:21.467Z,82.71
2017-11-17T00:41:44.286Z,82.71
2017-11-17T00:42:54.105Z,82.71
2017-11-17T00:44:04.185Z,82.71
2017-11-17T00:45:13.731Z,82.43
2017-11-17T00:46:23.322Z,82.43
2017-11-17T00:47:33.380Z,82.71
2017-11-17T00:48:43.275Z,82.62
2017-11-17T00:49:53.344Z,82.81
2017-11-17T00:51:03.164Z,82.62
2017-11-17T00:52:12.705Z,82.43
2017-11-17T00:53:22.789Z,82.81
2017-11-17T00:54:33.681Z,82.81
2017-11-17T00:55:43.772Z,82.62
2017-11-17T00:56:53.601Z,82.91
2017-11-17T00:58:03.687Z,82.91
2017-11-17T00:59:13.770Z,82.05
2017-11-17T01:00:23.849Z,82.15
2017-11-17T01:01:33.656Z,82.62
2017-11-17T01:02:43.724Z,82.71
2017-11-17T01:03:53.791Z,82.81
2017-11-17T01:05:03.366Z,82.53
2017-11-17T01:06:13.473Z,82.15
2017-11-17T01:07:23.551Z,82.53
2017-11-17T01:08:33.672Z,82.43
2017-11-17T01:09:43.752Z,82.81
2017-11-17T01:10:53.566Z,82.62
2017-11-17T01:12:03.647Z,82.53
2017-11-17T01:13:13.474Z,82.81
2017-11-17T01:14:23.023Z,82.77
2017-11-17T01:15:33.122Z,82.81
2017-11-17T01:16:42.650Z,82.77
2017-11-17T01:17:52.735Z,82.62
2017-11-17T01:19:02.826Z,82.71
2017-11-17T01:20:12.910Z,82.68
2017-11-17T01:21:22.454Z,82.68
2017-11-17T01:22:32.528Z,82.68
2017-11-17T01:23:42.346Z,82.58
2017-11-17T01:24:52.430Z,82.91
2017-11-17T01:26:02.298Z,82.87
2017-11-17T01:27:12.121Z,82.49
2017-11-17T01:28:21.660Z,82.49
2017-11-17T01:29:31.775Z,82.91
2017-11-17T01:30:41.853Z,82.24
2017-11-17T01:31:51.826Z,82.49
2017-11-17T01:33:01.634Z,82.87
2017-11-17T01:34:11.180Z,82.49
2017-11-17T01:35:20.981Z,82.77
2017-11-17T01:36:30.515Z,82.49
2017-11-17T01:37:40.592Z,82.2
2017-11-17T01:38:50.668Z,82.1
2017-11-17T01:40:00.477Z,82.29
2017-11-17T01:41:10.541Z,81.92
2017-11-17T01:42:20.352Z,81.92
2017-11-17T01:43:29.900Z,82.29
2017-11-17T01:44:39.996Z,82.39
2017-11-17T01:45:49.803Z,82.01
2017-11-17T01:46:59.620Z,82.29
2017-11-17T01:48:09.160Z,82.01
2017-11-17T01:49:18.975Z,82.2
2017-11-17T01:50:29.040Z,82.68
2017-11-17T01:51:38.856Z,82.87
2017-11-17T01:52:48.660Z,82.87
2017-11-17T01:53:58.466Z,82.39
2017-11-17T01:55:08.321Z,82.87
2017-11-17T01:56:17.869Z,82.2
2017-11-17T01:57:27.724Z,82.87
2017-11-17T01:58:37.535Z,82.87
2017-11-17T01:59:47.069Z,82.2
2017-11-17T02:00:56.876Z,82.1
2017-11-17T02:02:06.733Z,82.39
2017-11-17T02:03:16.804Z,81.92
2017-11-17T02:04:26.624Z,82.39
2017-11-17T02:05:36.724Z,81.92
2017-11-17T02:06:46.864Z,81.92
2017-11-17T02:07:56.675Z,82.39
2017-11-17T02:09:06.195Z,82.39
2017-11-17T02:10:15.753Z,82.58
2017-11-17T02:11:25.817Z,82.07
2017-11-17T02:12:35.674Z,82.58
2017-11-17T02:13:45.243Z,82.73
2017-11-17T02:14:54.512Z,82.73
2017-11-17T02:16:04.602Z,82.45
2017-11-17T02:17:14.692Z,82.16
2017-11-17T02:18:24.800Z,82.16
2017-11-17T02:19:34.875Z,82.07
2017-11-17T02:20:44.956Z,82.45
2017-11-17T02:21:54.770Z,82.07
2017-11-17T02:23:04.910Z,81.87
2017-11-17T02:24:15.036Z,81.87
2017-11-17T02:25:25.108Z,81.87
2017-11-17T02:26:35.184Z,81.78
2017-11-17T02:27:45.250Z,81.87
2017-11-17T02:28:55.096Z,81.87
2017-11-17T02:30:04.963Z,81.97
2017-11-17T02:31:14.790Z,81.97
2017-11-17T02:32:24.327Z,81.97
2017-11-17T02:33:34.399Z,81.78
2017-11-17T02:34:44.471Z,82.07
2017-11-17T02:35:54.293Z,81.97
2017-11-17T02:37:04.380Z,82.07
2017-11-17T02:38:14.485Z,82.07
2017-11-17T02:39:24.278Z,81.78
2017-11-17T02:40:34.364Z,81.87
2017-11-17T02:41:44.528Z,81.97
2017-11-17T02:42:54.336Z,82.07
2017-11-17T02:44:03.869Z,82.07
2017-11-17T02:45:13.694Z,81.97
2017-11-17T02:46:23.514Z,82.16
2017-11-17T02:47:33.581Z,81.87
2017-11-17T02:48:43.648Z,82.07
2017-11-17T02:49:53.200Z,81.87
2017-11-17T02:51:03.021Z,81.78
2017-11-17T02:52:13.109Z,81.87
2017-11-17T02:53:22.914Z,81.78
2017-11-17T02:54:32.709Z,82.07
2017-11-17T02:55:42.772Z,82.07
2017-11-17T02:56:52.845Z,82.07
2017-11-17T02:58:02.668Z,81.87
2017-11-17T02:59:12.738Z,82.07
2017-11-17T03:00:23.796Z,82.07
2017-11-17T03:01:33.591Z,81.97
2017-11-17T03:33:24.255Z,78.43
2017-11-17T03:34:34.047Z,78.81
2017-11-17T03:35:43.841Z,80.14
2017-11-17T03:36:53.948Z,80.9
2017-11-17T03:38:03.781Z,81.27
2017-11-17T03:39:13.647Z,82.32
2017-11-17T03:40:23.714Z,81.94
2017-11-17T03:41:33.536Z,82.23
2017-11-17T03:42:43.625Z,82.7
2017-11-17T03:43:53.715Z,83.17
2017-11-17T03:45:03.786Z,82.84
2017-11-17T03:46:13.609Z,82.74
2017-11-17T03:47:23.700Z,82.74
2017-11-17T03:48:33.504Z,82.93
2017-11-17T03:49:43.574Z,83.26
2017-11-17T03:50:53.670Z,83.16
2017-11-17T03:52:03.752Z,82.69
2017-11-17T03:53:13.572Z,82.88
2017-11-17T03:54:23.388Z,82.88
2017-11-17T03:55:33.183Z,83.01
2017-11-17T03:56:42.719Z,83.11
2017-11-17T03:57:52.796Z,83.11
2017-11-17T03:59:02.364Z,83.01
2017-11-17T04:00:12.429Z,83.01
2017-11-17T04:01:22.501Z,82.35
2017-11-17T04:02:32.392Z,82.26
2017-11-17T04:03:42.182Z,82.26
2017-11-17T04:04:52.296Z,82.26
2017-11-17T04:06:02.385Z,82.45
2017-11-17T04:07:12.210Z,82.45
2017-11-17T04:08:22.332Z,82.35
2017-11-17T04:09:32.140Z,82.54
2017-11-17T04:10:42.214Z,82.73
2017-11-17T04:11:52.278Z,82.73
2017-11-17T04:13:02.095Z,82.64
2017-11-17T04:14:12.165Z,82.64
2017-11-17T04:15:21.973Z,82.64
2017-11-17T04:16:31.513Z,82.82
2017-11-17T04:17:41.354Z,82.82
2017-11-17T04:18:50.890Z,82.64
2017-11-17T04:20:01.033Z,82.73
2017-11-17T04:21:10.856Z,82.2
2017-11-17T04:22:20.661Z,82.26
2017-11-17T04:23:30.227Z,82.73
2017-11-17T04:24:40.045Z,81.97
2017-11-17T04:25:50.104Z,82.68
2017-11-17T04:27:00.174Z,82.64
2017-11-17T04:28:10.287Z,82.73
2017-11-17T04:29:20.395Z,82.73
2017-11-17T04:30:30.466Z,82.45
2017-11-17T04:31:40.359Z,82.16
2017-11-17T04:32:50.162Z,82.26
2017-11-17T04:34:00.230Z,82.82
2017-11-17T04:35:10.298Z,82.82
2017-11-17T04:36:20.108Z,82.16
2017-11-17T04:37:30.237Z,82.07
2017-11-17T04:38:40.060Z,82.07
2017-11-17T04:39:50.124Z,82.16
2017-11-17T04:40:59.662Z,82.29
2017-11-17T04:42:09.751Z,81.87
2017-11-17T04:43:19.577Z,81.92
2017-11-17T04:44:29.662Z,82.54
2017-11-17T04:45:39.493Z,82.35
2017-11-17T04:46:49.560Z,82.16
2017-11-17T04:47:59.098Z,82.82
2017-11-17T04:49:09.235Z,81.97
2017-11-17T04:50:19.046Z,82.49
2017-11-17T04:51:29.102Z,82.1
2017-11-17T04:52:38.912Z,82.39
2017-11-17T04:53:48.970Z,82.39
2017-11-17T04:54:58.837Z,82.29
2017-11-17T04:56:08.915Z,81.92
2017-11-17T04:57:18.735Z,81.92
2017-11-17T04:58:28.560Z,81.73
2017-11-17T04:59:38.666Z,82.1
2017-11-17T05:00:48.524Z,81.92
2017-11-17T05:01:58.589Z,82.39
2017-11-17T05:03:08.148Z,82.39
2017-11-17T05:04:18.216Z,82.01
2017-11-17T05:05:28.051Z,81.82
2017-11-17T05:06:38.202Z,81.92
2017-11-17T05:07:48.003Z,82.39
2017-11-17T05:08:58.074Z,82.39
2017-11-17T05:10:07.889Z,82.49
2017-11-17T05:11:17.718Z,82.01
2017-11-17T05:12:27.594Z,82.01
2017-11-17T05:13:37.409Z,82.39
2017-11-17T05:14:47.482Z,82.1
2017-11-17T05:15:57.300Z,82.39
2017-11-17T05:17:07.369Z,82.39
2017-11-17T05:18:17.432Z,82.39
2017-11-17T05:19:27.499Z,82.01
2017-11-17T05:20:37.025Z,82.1
2017-11-17T05:21:47.097Z,82.39
2017-11-17T05:22:57.165Z,82.1
2017-11-17T05:24:07.241Z,82.01
2017-11-17T05:25:17.054Z,82.01
2017-11-17T05:26:27.145Z,82.39
2017-11-17T05:27:36.974Z,82.2
2017-11-17T05:28:47.047Z,82.1
2017-11-17T05:29:57.120Z,82.01
2017-11-17T05:31:06.933Z,82.1
2017-11-17T05:32:17.002Z,82.1
2017-11-17T05:33:26.803Z,82.07
2017-11-17T05:34:36.610Z,82.16
2017-11-17T05:35:46.694Z,82.2
2017-11-17T05:36:56.763Z,82.1
2017-11-17T05:38:06.568Z,82.01
2017-11-17T05:39:16.631Z,82.1
2017-11-17T05:40:26.176Z,82.82
2017-11-17T05:41:36.228Z,82.16
2017-11-17T05:42:46.293Z,82.35
2017-11-17T05:43:56.115Z,82.68
2017-11-17T05:45:06.184Z,82.16
2017-11-17T05:46:16.264Z,82.01
2017-11-17T05:47:26.347Z,82.01
2017-11-17T05:48:36.436Z,82.01
2017-11-17T05:49:46.243Z,82.2
2017-11-17T05:50:56.327Z,82.39
2017-11-17T05:52:06.145Z,82.01
2017-11-17T05:53:15.753Z,81.92
2017-11-17T05:54:25.850Z,82.01
2017-11-17T05:55:35.650Z,82.01
2017-11-17T05:56:45.184Z,82.49
2017-11-17T05:57:55.035Z,82.39
2017-11-17T05:59:05.148Z,82.1
2017-11-17T06:00:15.209Z,82.2
2017-11-17T06:01:25.313Z,82.68
2017-11-17T06:02:35.136Z,82.2
2017-11-17T06:03:44.926Z,82.58
2017-11-17T06:04:54.777Z,82.39
2017-11-17T06:06:04.864Z,82.1
2017-11-17T06:07:14.662Z,81.92
2017-11-17T06:08:24.744Z,81.82
2017-11-17T06:09:34.789Z,81.82
2017-11-17T06:10:44.917Z,81.92
2017-11-17T06:11:54.997Z,81.78
2017-11-17T06:13:04.821Z,82.1
2017-11-17T06:14:14.922Z,82.1
2017-11-17T06:15:24.991Z,81.92
2017-11-17T06:16:34.569Z,81.92
2017-11-17T06:17:44.386Z,81.92
2017-11-17T06:18:54.455Z,82.1
2017-11-17T06:20:04.282Z,81.92
2017-11-17T06:21:14.097Z,81.92
2017-11-17T06:22:23.897Z,82.1
2017-11-17T06:23:33.703Z,81.92
2017-11-17T06:24:43.522Z,82.1
2017-11-17T06:25:53.075Z,82.1
2017-11-17T06:27:03.155Z,82.01
2017-11-17T06:28:12.939Z,82.1
2017-11-17T06:29:22.753Z,82.1
2017-11-17T06:30:32.027Z,81.92
2017-11-17T06:31:41.577Z,81.92
2017-11-17T06:32:50.845Z,81.92
2017-11-17T06:34:00.973Z,81.92
2017-11-17T06:35:10.814Z,82.01
2017-11-17T06:36:20.893Z,82.1
2017-11-17T06:37:30.975Z,81.92
2017-11-17T06:38:40.790Z,82.01
2017-11-17T06:39:50.869Z,81.82
2017-11-17T06:41:00.951Z,82.01
2017-11-17T06:42:11.041Z,82.01
2017-11-17T06:43:20.599Z,82.1
2017-11-17T06:44:30.666Z,82.2
2017-11-17T06:45:40.751Z,81.82
2017-11-17T06:46:50.828Z,81.92
2017-11-17T06:48:00.633Z,81.92
2017-11-17T06:49:10.452Z,81.82
2017-11-17T06:50:20.535Z,82.1
2017-11-17T06:51:30.073Z,81.92
2017-11-17T06:52:40.135Z,81.92
2017-11-17T06:53:50.221Z,81.82
2017-11-17T06:55:00.322Z,81.92
2017-11-17T06:56:10.117Z,81.92
2017-11-17T06:57:19.682Z,81.92
2017-11-17T06:58:29.492Z,81.92
2017-11-17T06:59:39.574Z,81.92
2017-11-17T07:00:49.377Z,82.01
2017-11-17T07:01:59.472Z,82.01
2017-11-17T07:03:09.290Z,81.92
2017-11-17T07:04:19.402Z,82.01
2017-11-17T07:05:29.224Z,82.01
2017-11-17T07:06:39.368Z,82.1
2017-11-17T07:07:49.437Z,82.01
2017-11-17T07:08:59.605Z,81.92
2017-11-17T07:10:09.161Z,81.92
2017-11-17T07:11:18.967Z,81.82
2017-11-17T07:12:28.519Z,82.29
2017-11-17T07:13:38.599Z,82.29
2017-11-17T07:14:48.466Z,82.29
2017-11-17T07:15:58.299Z,82.39
2017-11-17T07:17:08.381Z,82.2
2017-11-17T07:18:18.497Z,82.29
2017-11-17T07:19:28.042Z,81.77
2017-11-17T07:20:37.629Z,82.15
2017-11-17T07:21:47.733Z,81.86
2017-11-17T07:22:57.582Z,81.96
2017-11-17T07:24:07.672Z,82.24
2017-11-17T07:25:17.496Z,81.86
2017-11-17T07:26:27.639Z,81.96
2017-11-17T07:27:37.759Z,81.86
2017-11-17T07:28:47.570Z,82.1
2017-11-17T07:29:57.111Z,82.34
2017-11-17T07:31:06.919Z,82.05
2017-11-17T07:32:16.780Z,82.05
2017-11-17T07:33:26.320Z,82.15
2017-11-17T07:34:35.602Z,82.24
2017-11-17T07:35:45.418Z,82.05
2017-11-17T07:36:55.500Z,82.15
2017-11-17T07:38:05.577Z,81.67
2017-11-17T07:39:15.136Z,81.86
2017-11-17T07:40:24.943Z,82.34
2017-11-17T07:41:34.499Z,82.43
2017-11-17T07:42:44.320Z,82.34
2017-11-17T07:43:54.192Z,81.96
2017-11-17T07:45:04.269Z,81.96
2017-11-17T07:46:14.345Z,82.24
2017-11-17T07:47:24.142Z,82.34
2017-11-17T07:48:33.957Z,82.15
2017-11-17T07:49:44.062Z,82.05
2017-11-17T07:50:54.141Z,81.96
2017-11-17T07:52:04.256Z,82.05
2017-11-17T07:53:14.331Z,81.96
2017-11-17T07:54:24.446Z,81.86
2017-11-17T07:55:33.992Z,82.05
2017-11-17T07:56:44.084Z,82.15
2017-11-17T07:57:54.165Z,82.05
2017-11-17T07:59:04.315Z,82.05
2017-11-17T08:00:14.393Z,82.15
2017-11-17T08:01:23.967Z,82.05
2017-11-17T08:02:34.063Z,82.05
2017-11-17T08:03:44.115Z,82.15
2017-11-17T08:04:54.215Z,82.15
2017-11-17T08:06:04.271Z,81.96
2017-11-17T08:07:14.128Z,82.15
2017-11-17T08:08:24.402Z,82.15
2017-11-17T08:09:34.240Z,82.24
2017-11-17T08:10:44.367Z,82.24
2017-11-17T08:11:55.105Z,82.24
2017-11-17T08:13:04.981Z,81.86
2017-11-17T08:14:15.088Z,82.15
2017-11-17T08:15:24.689Z,81.96
2017-11-17T08:16:34.515Z,82.15
2017-11-17T08:17:44.326Z,82.05
2017-11-17T08:18:55.655Z,82.09
2017-11-17T08:20:05.181Z,82.48
2017-11-17T08:21:15.253Z,82.38
2017-11-17T08:22:25.085Z,82.28
2017-11-17T08:23:34.642Z,81.71
2017-11-17T08:24:44.718Z,82
2017-11-17T08:25:54.268Z,81.9
2017-11-17T08:27:04.389Z,82
2017-11-17T08:28:14.515Z,81.95
2017-11-17T08:29:24.380Z,81.76
2017-11-17T08:30:34.468Z,81.85
2017-11-17T08:31:44.297Z,81.95
2017-11-17T08:32:54.393Z,81.85
2017-11-17T08:34:04.490Z,81.47
2017-11-17T08:35:14.317Z,81.66
2017-11-17T08:36:24.148Z,81.85
2017-11-17T08:37:34.251Z,81.56
2017-11-17T08:38:44.341Z,81.47
2017-11-17T08:39:54.415Z,81.47
2017-11-17T08:41:04.543Z,81.6
2017-11-17T08:42:14.396Z,81.56
2017-11-17T08:43:24.479Z,81.95
2017-11-17T08:44:34.610Z,82.42
2017-11-17T08:45:44.740Z,82.04
2017-11-17T08:46:54.631Z,82.14
2017-11-17T08:48:04.176Z,82.42
2017-11-17T08:49:13.997Z,81.95
2017-11-17T08:50:24.094Z,82.32
2017-11-17T08:51:33.929Z,82.42
2017-11-17T08:52:44.079Z,82.14
2017-11-17T08:53:53.627Z,82.14
2017-11-17T08:55:03.714Z,82.42
2017-11-17T08:56:13.564Z,81.85
2017-11-17T08:57:23.693Z,81.95
2017-11-17T08:58:33.569Z,82.51
2017-11-17T08:59:43.401Z,82.32
2017-11-17T09:00:53.212Z,82.23
2017-11-17T09:02:03.269Z,81.95
2017-11-17T09:03:13.376Z,82.23
2017-11-17T09:04:23.246Z,82.23
2017-11-17T09:05:33.073Z,82.51
2017-11-17T09:06:43.020Z,82.14
2017-11-17T09:07:52.324Z,82.14
2017-11-17T09:09:02.446Z,81.85
2017-11-17T09:10:12.327Z,82.42
2017-11-17T09:11:22.136Z,82.42
2017-11-17T09:12:31.684Z,82.42
2017-11-17T09:13:41.763Z,82.23
2017-11-17T09:14:51.870Z,82.14
2017-11-17T09:16:01.737Z,82.14
2017-11-17T09:17:11.844Z,82.42
2017-11-17T09:18:21.695Z,82.14
2017-11-17T09:19:31.807Z,81.95
2017-11-17T09:20:41.881Z,81.89
2017-11-17T09:21:51.689Z,81.79
2017-11-17T09:23:01.511Z,81.89
2017-11-17T09:24:11.594Z,81.89
2017-11-17T09:25:21.408Z,81.89
2017-11-17T09:26:31.220Z,81.7
2017-11-17T09:27:41.131Z,81.6
2017-11-17T09:28:50.938Z,81.79
2017-11-17T09:30:01.035Z,81.89
2017-11-17T09:31:11.144Z,81.89
2017-11-17T09:32:21.255Z,81.98
2017-11-17T09:33:31.406Z,81.98
2017-11-17T09:34:41.744Z,81.89
2017-11-17T09:35:51.585Z,81.65
2017-11-17T09:37:01.677Z,82.03
2017-11-17T09:38:11.505Z,81.93
2017-11-17T09:39:21.161Z,81.6
2017-11-17T09:40:30.776Z,81.74
2017-11-17T09:41:40.074Z,81.84
2017-11-17T09:42:49.886Z,81.65
2017-11-17T09:43:59.436Z,81.84
2017-11-17T09:45:09.600Z,81.93
2017-11-17T09:46:19.412Z,82.21
2017-11-17T09:47:29.224Z,82.31
2017-11-17T09:48:39.316Z,82.03
2017-11-17T09:49:48.320Z,82.21
2017-11-17T09:50:57.912Z,82.5
2017-11-17T09:52:08.005Z,82.6
2017-11-17T09:53:18.112Z,82.6
2017-11-17T09:54:27.909Z,82.5
2017-11-17T09:55:37.746Z,82.5
2017-11-17T09:56:47.391Z,82.37
2017-11-17T09:57:57.210Z,82.21
2017-11-17T09:59:07.305Z,81.98
2017-11-17T10:00:17.380Z,82.18
2017-11-17T10:01:27.491Z,81.98
2017-11-17T10:02:37.099Z,82.21
2017-11-17T10:03:46.897Z,81.93
2017-11-17T10:04:57.010Z,82.18
2017-11-17T10:06:06.882Z,82.37
2017-11-17T10:07:16.971Z,82.21
2017-11-17T10:08:27.052Z,82.08
2017-11-17T10:09:36.881Z,82.18
2017-11-17T10:10:46.707Z,81.79
2017-11-17T10:11:56.562Z,82.18
2017-11-17T10:13:06.870Z,82.18
2017-11-17T10:14:16.966Z,82.46
2017-11-17T10:15:27.084Z,81.79
2017-11-17T10:16:37.175Z,82.46
2017-11-17T10:17:47.307Z,82.46
2017-11-17T10:18:57.406Z,82.46
2017-11-17T10:20:07.486Z,82.46
2017-11-17T10:21:17.629Z,82.08
2017-11-17T10:22:27.493Z,82.08
2017-11-17T10:23:37.578Z,82.08
2017-11-17T10:24:47.651Z,82.56
2017-11-17T10:25:57.800Z,82.37
2017-11-17T10:27:07.650Z,82.27
2017-11-17T10:28:17.459Z,82.27
2017-11-17T10:29:27.566Z,82.27
2017-11-17T10:30:37.676Z,81.98
2017-11-17T10:31:48.255Z,82.27
2017-11-17T10:32:58.069Z,81.89
2017-11-17T10:34:07.980Z,81.89
2017-11-17T10:35:18.076Z,81.93
2017-11-17T10:36:27.925Z,81.07
2017-11-17T10:37:37.787Z,81.55
2017-11-17T10:38:47.895Z,81.46
2017-11-17T10:39:57.705Z,81.07
2017-11-17T10:41:07.804Z,81.46
2017-11-17T10:42:17.888Z,81.02
2017-11-17T10:43:29.337Z,81.02
2017-11-17T10:44:39.448Z,81.02
2017-11-17T10:45:49.261Z,81.3
2017-11-17T10:46:59.353Z,81.4
2017-11-17T10:48:09.461Z,81.21
2017-11-17T10:49:19.374Z,81.49
2017-11-17T10:50:29.471Z,81.97
2017-11-17T10:51:39.305Z,81.68
2017-11-17T10:52:49.125Z,81.97
2017-11-17T10:53:58.963Z,82.03
2017-11-17T10:55:09.066Z,81.55
2017-11-17T10:56:19.169Z,81.74
2017-11-17T10:57:28.713Z,81.74
2017-11-17T10:58:38.519Z,82.12
2017-11-17T10:59:48.368Z,82.12
2017-11-17T11:00:58.552Z,81.93
2017-11-17T11:02:08.626Z,82.35
2017-11-17T11:03:18.445Z,81.4
2017-11-17T11:04:28.283Z,81.12
2017-11-17T11:05:38.396Z,81.88
2017-11-17T11:06:48.557Z,81.12
2017-11-17T11:07:58.637Z,81.3
2017-11-17T11:09:08.467Z,82.07
2017-11-17T11:10:18.303Z,81.97
2017-11-17T11:11:27.859Z,81.88
2017-11-17T11:12:37.680Z,81.3
2017-11-17T11:13:47.786Z,81.12
2017-11-17T11:14:57.609Z,81.21
2017-11-17T11:16:07.165Z,81.4
2017-11-17T11:17:17.250Z,81.97
2017-11-17T11:18:27.804Z,81.4
2017-11-17T11:19:37.645Z,81.78
2017-11-17T11:20:47.492Z,81.68
2017-11-17T11:21:57.596Z,81.12
2017-11-17T11:23:07.416Z,81.54
2017-11-17T11:24:17.277Z,81.06
2017-11-17T11:25:27.437Z,81.06
2017-11-17T11:26:37.255Z,81.15
2017-11-17T11:27:47.119Z,81.54
2017-11-17T11:28:57.188Z,81.06
2017-11-17T11:30:07.309Z,81.06
2017-11-17T11:31:16.905Z,80.96
2017-11-17T11:32:26.721Z,81.06
2017-11-17T11:33:36.546Z,81.06
2017-11-17T11:34:46.666Z,80.96
2017-11-17T11:35:56.499Z,80.87
2017-11-17T11:37:06.344Z,81.73
2017-11-17T11:38:16.451Z,81.44
2017-11-17T11:39:26.297Z,81.15
2017-11-17T11:40:36.378Z,81.25
2017-11-17T11:41:46.234Z,81.35
2017-11-17T11:42:56.328Z,81.82
2017-11-17T11:44:06.148Z,81.82
2017-11-17T11:45:15.735Z,81.92
2017-11-17T11:46:25.824Z,81.73
2017-11-17T11:47:35.376Z,81.82
2017-11-17T11:48:45.480Z,81.63
2017-11-17T11:49:55.298Z,81.44
2017-11-17T11:51:05.391Z,81.73
2017-11-17T11:52:15.469Z,81.54
2017-11-17T11:53:25.555Z,81.44
2017-11-17T11:54:35.680Z,81.35
2017-11-17T11:55:45.752Z,81.48
2017-11-17T11:56:55.561Z,81.01
2017-11-17T11:58:05.370Z,81.48
2017-11-17T11:59:15.240Z,81.1
2017-11-17T12:00:25.320Z,80.62
2017-11-17T12:01:35.159Z,80.43
2017-11-17T12:02:45.261Z,80.66
2017-11-17T12:03:55.338Z,80.09
2017-11-17T12:05:04.890Z,80.09
2017-11-17T12:06:14.453Z,80.66
2017-11-17T12:07:24.259Z,80.66
2017-11-17T12:08:33.820Z,81.24
2017-11-17T12:09:43.898Z,80.95
2017-11-17T12:10:54.044Z,81.29
2017-11-17T12:12:03.876Z,81.38
2017-11-17T12:13:13.733Z,81.38
2017-11-17T12:14:23.554Z,81.48
2017-11-17T12:15:33.638Z,81.48
2017-11-17T12:16:43.467Z,81.58
2017-11-17T12:17:53.552Z,81.1
2017-11-17T12:19:03.636Z,81.86
2017-11-17T12:20:13.738Z,81.96
2017-11-17T12:21:23.292Z,82.01
2017-11-17T12:22:33.371Z,82.01
2017-11-17T12:23:43.202Z,82.11
2017-11-17T12:24:53.278Z,81.15
2017-11-17T12:26:03.371Z,81.54
2017-11-17T12:27:13.204Z,81.58
2017-11-17T12:28:23.101Z,81.35
2017-11-17T12:29:33.192Z,81.48
2017-11-17T12:30:43.271Z,81.29
2017-11-17T12:31:53.340Z,81.58
2017-11-17T12:33:03.151Z,81.44
2017-11-17T12:34:13.297Z,81.54
2017-11-17T12:35:23.129Z,81.35
2017-11-17T12:36:33.227Z,81.63
2017-11-17T12:37:43.321Z,81.82
2017-11-17T12:38:53.200Z,81.54
2017-11-17T12:40:03.032Z,81.15
2017-11-17T12:41:13.458Z,81.35
2017-11-17T12:42:23.534Z,82.3
2017-11-17T12:43:33.091Z,82.01
2017-11-17T12:44:42.919Z,81.82
2017-11-17T12:45:53.523Z,81.82
2017-11-17T12:47:03.096Z,81.92
2017-11-17T12:48:13.215Z,82.01
2017-11-17T12:49:23.035Z,81.88
2017-11-17T12:50:33.366Z,81.97
2017-11-17T12:51:43.445Z,81.88
2017-11-17T12:52:53.271Z,81.97
2017-11-17T12:54:03.359Z,81.59
2017-11-17T12:55:13.444Z,82.17
2017-11-17T12:56:23.532Z,81.88
2017-11-17T12:57:33.405Z,81.88
2017-11-17T12:58:43.496Z,81.88
2017-11-17T12:59:53.320Z,81.88
2017-11-17T13:01:03.423Z,81.88
2017-11-17T13:02:14.700Z,81.68
2017-11-17T13:03:24.545Z,81.88
2017-11-17T13:04:34.368Z,81.68
2017-11-17T13:05:44.472Z,81.88
2017-11-17T13:06:54.306Z,81.97
2017-11-17T13:08:03.869Z,82.17
2017-11-17T13:09:13.787Z,82.07
2017-11-17T13:10:23.622Z,82.07
2017-11-17T13:11:33.415Z,82.07
2017-11-17T13:12:43.254Z,82.07
2017-11-17T13:13:53.352Z,82.35
2017-11-17T13:15:03.209Z,82.35
2017-11-17T13:16:13.303Z,82.26
2017-11-17T13:17:23.200Z,82.45
2017-11-17T13:18:33.288Z,82.54
2017-11-17T13:19:43.471Z,82.54
2017-11-17T13:20:53.332Z,82.54
2017-11-17T13:22:03.143Z,82.17
2017-11-17T13:23:13.236Z,82.26
2017-11-17T13:24:23.335Z,82.07
2017-11-17T13:25:33.411Z,82.07
2017-11-17T13:26:43.296Z,82.17
2017-11-17T13:27:53.112Z,82.26
2017-11-17T13:29:02.941Z,82.17
2017-11-17T13:30:13.039Z,82.17
2017-11-17T13:31:23.153Z,82.26
2017-11-17T13:32:33.245Z,82.35
2017-11-17T13:33:43.075Z,82.26
2017-11-17T13:34:53.189Z,82.26
2017-11-17T13:36:03.296Z,82.35
2017-11-17T13:37:13.110Z,82.26
2017-11-17T13:38:23.275Z,82.45
2017-11-17T13:39:33.371Z,82.45
2017-11-17T13:40:43.186Z,82.54
2017-11-17T13:41:53.000Z,82.45
2017-11-17T13:43:03.116Z,82.6
2017-11-17T13:44:13.264Z,82.64
2017-11-17T13:45:23.354Z,82.35
2017-11-17T13:46:33.210Z,82.45
2017-11-17T13:47:43.314Z,82.21
2017-11-17T13:48:52.601Z,82.21
2017-11-17T13:50:03.626Z,82.03
2017-11-17T13:51:13.445Z,82.21
2017-11-17T13:52:23.282Z,82.21
2017-11-17T13:53:33.107Z,82.21
2017-11-17T13:54:43.235Z,82.31
2017-11-17T13:55:53.352Z,82.12
2017-11-17T13:57:03.447Z,82.21
2017-11-17T13:58:13.542Z,82.12
2017-11-17T13:59:23.627Z,82.5
2017-11-17T14:00:33.712Z,82.5
2017-11-17T14:01:43.852Z,82.41
2017-11-17T14:02:53.697Z,82.31
2017-11-17T14:04:03.799Z,82.41
2017-11-17T14:05:13.609Z,82.31
2017-11-17T14:06:23.473Z,82.12
2017-11-17T14:07:33.135Z,82.31
2017-11-17T14:08:43.217Z,82.12
2017-11-17T14:09:53.348Z,82.5
2017-11-17T14:11:03.495Z,82.37
2017-11-17T14:12:13.640Z,82.5
2017-11-17T14:13:23.751Z,82.46
2017-11-17T14:14:33.590Z,82.56
2017-11-17T14:15:43.442Z,82.27
2017-11-17T14:16:53.556Z,82.46
2017-11-17T14:18:03.665Z,82.41
2017-11-17T14:19:13.819Z,82.37
2017-11-17T14:20:23.377Z,82.37
2017-11-17T14:21:33.202Z,82.37
2017-11-17T14:22:43.303Z,82.08
2017-11-17T14:23:53.172Z,82.27
2017-11-17T14:25:03.258Z,82.27
2017-11-17T14:26:13.344Z,82.27
2017-11-17T14:27:23.426Z,81.98
2017-11-17T14:28:33.557Z,82.08
2017-11-17T14:29:43.369Z,81.98
2017-11-17T14:30:53.236Z,81.98
2017-11-17T14:32:03.044Z,82.56
2017-11-17T14:33:12.912Z,82.27
2017-11-17T14:34:22.773Z,82.56
2017-11-17T14:35:32.593Z,82.56
2017-11-17T14:36:42.130Z,82.56
2017-11-17T14:37:52.233Z,82.56
2017-11-17T14:39:02.048Z,82.08
2017-11-17T14:40:11.621Z,82.56
2017-11-17T14:41:21.446Z,82.56
2017-11-17T14:42:31.524Z,82.32
2017-11-17T14:43:41.103Z,82.65
2017-11-17T14:44:50.924Z,82.14
2017-11-17T14:46:00.745Z,82.14
2017-11-17T14:47:10.838Z,82.99
2017-11-17T14:48:20.699Z,82.61
2017-11-17T14:49:30.797Z,82.14
2017-11-17T14:50:40.622Z,82.23
2017-11-17T14:51:50.482Z,82.8
2017-11-17T14:53:00.572Z,82.8
2017-11-17T14:54:10.717Z,82.84
2017-11-17T14:55:21.906Z,82.93
2017-11-17T14:56:32.024Z,82.8
2017-11-17T14:57:41.879Z,82.51
2017-11-17T14:58:51.953Z,82.9
2017-11-17T15:00:01.779Z,82.8
2017-11-17T15:01:11.581Z,82.9
2017-11-17T15:02:21.671Z,82.61
2017-11-17T15:03:31.489Z,82.8
2017-11-17T15:04:41.321Z,82.8
2017-11-17T15:05:51.195Z,82.61
2017-11-17T15:07:00.773Z,82.9
2017-11-17T15:08:10.577Z,82.7
2017-11-17T15:09:20.409Z,82.61
2017-11-17T15:10:30.495Z,82.8
2017-11-17T15:11:40.636Z,82.61
2017-11-17T15:12:50.754Z,82.23
2017-11-17T15:14:00.856Z,82.14
2017-11-17T15:15:10.721Z,82.23
2017-11-17T15:16:20.536Z,82.9
2017-11-17T15:17:30.409Z,82.32
2017-11-17T15:18:40.237Z,82.9
2017-11-17T15:19:51.058Z,82.32
2017-11-17T15:21:01.176Z,82.42
2017-11-17T15:22:11.280Z,82.8
2017-11-17T15:23:21.158Z,82.8
2017-11-17T15:24:30.998Z,82.61
2017-11-17T15:25:41.077Z,83.28
2017-11-17T15:26:50.650Z,82.8
2017-11-17T15:28:00.746Z,82.8
2017-11-17T15:29:11.200Z,82.8
2017-11-17T15:30:21.016Z,82.61
2017-11-17T15:31:31.121Z,82.8
2017-11-17T15:32:40.954Z,82.42
2017-11-17T15:33:50.500Z,82.51
2017-11-17T15:35:00.440Z,82.61